Weather

Rainfall Maps have ended for the season and will begin again on May 1st.

DAILY 7 DAY TOTAL
onrain

Note: Some stations are located near irrigated fields and may also report irrigation

Alliston Mount Forest Blyth Guelph Grand Bend Strathroy Woodstock Belmont Simcoe Leamington Chatham West Lorne






Woodstock Outdoor FS - Historical Weather Data
Date Max Temp (°C) Min Temp (°C) Avg Temp (°C) Rain (mm) 7Day Rain(mm) Total Rain(mm) Avg RH (%)
10/31/2017 4.9 1.1 3.0 0.0 7.4 541.2 76.8
10/30/2017 4.8 2.6 3.8 0.8 13.0 541.2 84.7
10/29/2017 8.8 -0.7 3.9 0.0 25.4 540.4 83.5
10/28/2017 8.9 1.1 4.3 6.0 25.4 540.4 94.6
10/27/2017 15.7 -0.1 8.3 0.4 19.4 534.4 84.2
10/26/2017 11.1 -2.5 3.3 0.2 19.0 534.0 84.2
10/25/2017 9.4 -0.4 5.2 0.0 18.8 533.8 83.7
10/24/2017 13.5 6.4 9.9 5.6 18.8 533.8 87.6
10/23/2017 18.8 12.8 15.3 13.2 13.2 528.2 85.4
10/22/2017 22.8 5.8 14.4 0.0 0.0 515.0 76.1
10/21/2017 21.0 6.6 13.5 0.0 7.8 515.0 82.4
10/20/2017 20.2 2.6 10.8 0.0 19.6 515.0 68.3
10/19/2017 18.8 5.0 12.4 0.0 20.8 515.0 70.0
10/18/2017 18.4 6.3 11.7 0.0 20.8 515.0 73.6
10/17/2017 18.0 0.0 9.3 0.0 20.8 515.0 74.4
10/16/2017 10.5 0.3 5.1 0.0 20.8 515.0 80.2
10/15/2017 20.9 6.2 15.2 7.8 20.8 515.0 91.9
10/14/2017 18.6 11.6 14.7 11.8 13.0 507.2 97.1
10/13/2017 18.4 10.4 14.3 1.2 1.2 495.4 95.8
10/12/2017 13.1 6.9 10.3 0.0 0.0 494.2 96.4
10/11/2017 11.2 6.8 9.1 0.0 0.0 494.2 88.7
10/10/2017 21.6 9.3 14.3 0.0 0.0 494.2 84.5
10/9/2017 22.7 10.8 16.3 0.0 0.0 494.2 91.4
10/8/2017 22.2 13.8 17.4 0.0 0.0 494.2 86.2
10/7/2017 24.6 16.1 20.3 0.0 0.0 494.2 80.3
10/6/2017 20.8 11.7 15.5 0.0 0.0 494.2 85.4
10/5/2017 21.8 7.5 14.3 0.0 0.0 494.2 75.2
10/4/2017 23.0 12.1 19.6 0.0 0.0 494.2 81.9
10/3/2017 24.7 4.6 15.2 0.0 0.0 494.2 70.5
10/2/2017 22.1 3.1 11.8 0.0 0.0 494.2 76.0
10/1/2017 18.9 0.4 9.0 0.0 0.0 494.2 77.1
9/30/2017 15.2 3.2 8.8 0.0 0.0 494.2 78.9
9/29/2017 17.5 5.4 10.3 0.0 0.0 494.2 85.9
9/28/2017 16.0 5.4 12.0 0.0 0.0 494.2 75.9
9/27/2017 25.3 13.0 19.2 0.0 0.2 494.2 83.9
9/26/2017 30.3 16.3 22.5 0.0 0.6 494.2 76.6
9/25/2017 30.7 15.2 22.1 0.0 8.4 494.2 79.0
9/24/2017 31.9 14.8 22.8 0.0 8.6 494.2 78.0
9/23/2017 30.7 13.8 21.6 0.0 8.6 494.2 76.0
9/22/2017 30.0 15.1 21.3 0.0 8.6 494.2 74.7
9/21/2017 29.3 14.5 20.9 0.2 8.6 494.2 79.5
9/20/2017 28.3 15.8 20.5 0.4 8.4 494.0 88.7
9/19/2017 25.5 17.1 19.5 7.8 8.0 493.6 95.2
9/18/2017 26.8 13.1 19.5 0.2 0.2 485.8 86.5
9/17/2017 27.0 11.6 18.8 0.0 0.0 485.6 83.2
9/16/2017 26.4 11.0 18.0 0.0 0.0 485.6 83.8
9/15/2017 25.5 9.8 17.4 0.0 0.0 485.6 84.9
9/14/2017 25.4 13.6 18.4 0.0 10.6 485.6 85.3
9/13/2017 26.2 8.4 16.8 0.0 15.8 485.6 83.7
9/12/2017 25.3 5.0 15.0 0.0 15.8 485.6 78.4
9/11/2017 22.4 4.1 13.0 0.0 16.0 485.6 77.6
9/10/2017 20.0 3.5 11.6 0.0 22.0 485.6 76.5
9/9/2017 17.2 5.0 10.6 0.0 34.6 485.6 74.8
9/8/2017 16.9 6.9 11.4 10.6 34.6 485.6 84.9
9/7/2017 16.4 6.2 10.7 5.2 24.0 475.0 92.1
9/6/2017 20.2 5.6 12.7 0.0 23.0 469.8 81.8
9/5/2017 19.4 11.1 14.9 0.2 23.0 469.8 85.3
9/4/2017 23.6 11.9 17.5 6.0 22.8 469.6 82.5
9/3/2017 19.6 12.8 15.4 12.6 16.8 463.6 86.3
9/2/2017 20.5 5.4 12.5 0.0 4.2 451.0 76.8
9/1/2017 17.5 5.3 10.8 0.0 4.2 451.0 76.2
8/31/2017 19.3 7.4 14.5 4.2 4.2 451.0 78.4
8/30/2017 24.4 9.9 17.0 0.0 0.0 446.8 82.4
8/29/2017 23.5 12.9 18.4 0.0 0.0 446.8 72.6
8/28/2017 21.9 12.7 17.3 0.0 12.4 446.8 80.0
8/27/2017 23.2 7.7 15.3 0.0 12.4 446.8 78.3
8/26/2017 22.1 5.9 14.0 0.0 12.4 446.8 73.6
8/25/2017 21.3 5.7 14.0 0.0 12.4 446.8 70.7
8/24/2017 19.9 8.5 13.9 0.0 13.0 446.8 82.9
8/23/2017 20.8 10.6 15.4 0.0 27.4 446.8 82.0
8/22/2017 24.9 12.9 20.6 12.4 27.4 446.8 91.4
8/21/2017 29.1 13.9 21.5 0.0 19.6 434.4 81.3
8/20/2017 26.8 12.6 19.2 0.0 19.6 434.4 80.8
8/19/2017 22.3 13.6 17.8 0.0 19.6 434.4 86.2
8/18/2017 23.4 17.5 20.6 0.6 19.6 434.4 88.8
8/17/2017 21.0 13.5 17.9 14.4 28.4 433.8 97.4
8/16/2017 26.4 11.3 19.2 0.0 14.0 419.4 79.0
8/15/2017 25.4 13.7 19.2 4.6 14.0 419.4 82.3
8/14/2017 25.9 13.1 18.9 0.0 9.4 414.8 75.6
8/13/2017 24.6 11.4 18.3 0.0 9.4 414.8 76.6
8/12/2017 23.5 14.7 19.0 0.0 9.6 414.8 86.0
8/11/2017 22.4 16.4 19.7 9.4 10.0 414.8 91.4
8/10/2017 26.9 13.2 19.9 0.0 31.6 405.4 75.0
8/9/2017 26.7 14.1 20.0 0.0 34.8 405.4 74.2
8/8/2017 24.5 8.6 17.2 0.0 74.4 405.4 78.0
8/7/2017 22.2 13.9 17.6 0.0 75.0 405.4 86.6
8/6/2017 23.9 8.9 16.6 0.2 75.0 405.4 80.8
8/5/2017 20.1 10.5 15.4 0.4 74.8 405.2 80.8
8/4/2017 23.8 14.5 19.2 31.0 74.4 404.8 88.2
8/3/2017 26.6 14.0 20.0 3.2 43.4 373.8 87.7
8/2/2017 27.3 15.1 19.3 39.6 42.2 370.6 88.2
8/1/2017 29.5 13.6 21.1 0.6 3.0 331.0 79.1
7/31/2017 28.3 13.1 21.2 0.0 2.4 330.4 75.4
7/30/2017 27.3 14.7 21.1 0.0 2.4 330.4 61.5
7/29/2017 26.0 11.7 19.2 0.0 2.6 330.4 67.9
7/28/2017 23.3 13.2 18.0 0.0 7.0 330.4 76.0
7/27/2017 27.8 17.9 21.4 2.0 7.0 330.4 84.8
7/26/2017 23.5 10.3 17.7 0.4 9.4 328.4 81.2
7/25/2017 25.7 14.4 18.7 0.0 9.0 328.0 74.0
7/24/2017 19.0 14.4 17.1 0.0 9.0 328.0 88.5
7/23/2017 26.4 16.8 20.9 0.2 9.0 328.0 84.6
7/22/2017 23.1 17.7 20.1 4.4 17.0 327.8 84.6
7/21/2017 28.3 16.9 22.6 0.0 12.6 323.4 76.5
7/20/2017 27.9 14.3 21.0 4.4 12.8 323.4 87.0
7/19/2017 28.6 16.2 21.8 0.0 91.0 319.0 77.7
7/18/2017 26.6 11.3 19.7 0.0 91.4 319.0 77.7
7/17/2017 24.2 15.2 19.4 0.0 91.6 319.0 87.6
7/16/2017 24.1 15.4 19.0 8.2 92.4 319.0 91.0
7/15/2017 24.3 14.9 19.5 0.0 84.2 310.8 78.3
7/14/2017 24.4 16.2 19.4 0.2 84.4 310.8 86.5
7/13/2017 20.9 16.1 18.6 82.6 102.0 310.6 100.0
7/12/2017 24.9 18.4 22.1 0.4 19.4 228.0 93.5
7/11/2017 27.9 15.7 21.4 0.2 19.0 227.6 84.9
7/10/2017 21.4 14.7 18.6 0.8 18.8 227.4 86.3
7/9/2017 25.5 12.1 18.9 0.0 18.0 226.6 63.4
7/8/2017 22.7 12.8 18.3 0.2 18.2 226.6 73.5
7/7/2017 27.6 16.4 21.2 17.8 25.2 226.4 78.2
7/6/2017 29.1 13.0 21.6 0.0 9.6 208.6 69.4
7/5/2017 27.9 11.1 20.3 0.0 13.6 208.6 63.4
7/4/2017 26.0 11.1 19.1 0.0 13.8 208.6 66.0
7/3/2017 23.8 11.7 18.5 0.0 21.6 208.6 73.3
7/2/2017 26.2 12.2 20.1 0.2 22.2 208.6 74.0
7/1/2017 24.7 15.7 19.5 7.2 27.4 208.4 93.8
6/30/2017 26.3 18.4 21.1 2.2 20.4 201.2 88.5
6/29/2017 25.9 14.3 19.8 4.0 34.2 199.0 80.6
6/28/2017 22.8 9.8 16.8 0.2 46.4 195.0 70.1
6/27/2017 19.1 8.4 13.8 7.8 46.2 194.8 78.8
6/26/2017 19.7 11.4 14.8 0.6 42.4 187.0 76.9
6/25/2017 19.1 11.3 15.0 5.4 42.6 186.4 78.3
6/24/2017 22.3 13.5 18.1 0.2 49.0 181.0 77.5
6/23/2017 23.7 17.1 20.4 16.0 50.0 180.8 93.2
6/22/2017 25.6 10.4 18.0 16.2 35.0 164.8 86.3
6/21/2017 21.8 10.5 16.3 0.0 18.8 148.6 76.8
6/20/2017 22.1 12.2 16.2 4.0 18.8 148.6 82.0
6/19/2017 24.5 13.8 18.7 0.8 14.8 144.6 76.2
6/18/2017 26.7 17.1 22.5 11.8 14.0 143.8 78.8
6/17/2017 28.5 17.6 23.0 1.2 2.2 132.0 73.0
6/16/2017 29.7 16.4 22.5 1.0 1.0 130.8 71.0
6/15/2017 25.1 14.9 19.2 0.0 0.0 129.8 65.2
6/14/2017 25.4 15.7 20.0 0.0 0.0 129.8 61.5
6/13/2017 27.4 18.2 23.3 0.0 0.0 129.8 60.3
6/12/2017 30.2 18.6 24.6 0.0 2.8 129.8 59.6
6/11/2017 29.0 17.9 23.7 0.0 2.8 129.8 56.7
6/10/2017 28.1 11.2 20.9 0.0 6.0 129.8 64.6
6/9/2017 25.8 10.3 17.8 0.0 6.0 129.8 60.8
6/8/2017 23.3 7.2 16.1 0.0 6.0 129.8 63.8
6/7/2017 21.3 6.5 14.2 0.0 6.0 129.8 69.6
6/6/2017 17.5 10.2 13.3 2.8 6.0 129.8 87.9
6/5/2017 17.5 13.0 15.4 0.0 7.4 127.0 86.3
6/4/2017 26.1 12.2 18.3 3.2 8.8 127.0 77.2
6/3/2017 24.2 8.7 16.7 0.0 5.6 123.8 51.3
6/2/2017 20.3 5.9 13.8 0.0 5.6 123.8 57.8
6/1/2017 18.2 7.4 12.8 0.0 5.6 123.8 64.1
5/31/2017 21.4 9.5 15.3 0.0 28.0 123.8 65.3
5/30/2017 22.2 10.8 16.6 4.2 30.0 123.8 69.9
5/29/2017 24.0 12.9 17.7 1.4 25.8 119.6 75.4
5/28/2017 23.6 8.9 16.4 0.0 24.4 118.2 80.6
5/27/2017 20.9 8.2 14.6 0.0 38.2 118.2 81.1
5/26/2017 16.2 9.6 12.7 0.0 38.2 118.2 94.0
5/25/2017 12.6 9.9 11.7 22.4 38.2 118.2 99.8
5/24/2017 20.2 11.4 15.2 2.0 15.8 95.8 73.2
5/23/2017 22.1 8.1 15.1 0.0 13.8 93.8 71.6
5/22/2017 16.8 8.5 12.7 0.0 16.2 93.8 80.4
5/21/2017 17.7 8.2 13.5 13.8 16.2 93.8 91.5
5/20/2017 15.5 8.0 10.9 0.0 3.4 80.0 50.8
5/19/2017 16.4 6.7 10.9 0.0 3.8 80.0 72.6
5/18/2017 26.8 16.5 22.5 0.0 3.8 80.0 60.9
5/17/2017 27.1 11.0 20.6 0.0 4.4 80.0 68.5
5/16/2017 21.5 4.4 12.3 2.4 4.4 80.0 77.8
5/15/2017 19.5 3.5 11.8 0.0 2.0 77.6 60.8
5/14/2017 13.7 5.8 10.8 1.0 2.0 77.6 73.0
5/13/2017 19.5 2.4 11.5 0.4 1.2 76.6 70.0
5/12/2017 13.6 4.1 9.1 0.0 4.4 76.2 73.3
5/11/2017 13.2 5.4 8.7 0.6 30.4 76.2 62.1
5/10/2017 14.7 3.4 8.6 0.0 56.0 75.6 62.0
5/9/2017 13.8 -1.9 6.7 0.0 56.0 75.6 58.0
5/8/2017 9.2 -0.6 4.2 0.0 65.4 75.6 60.1
5/7/2017 8.0 0.2 4.8 0.2 75.6 75.6 72.4
5/6/2017 6.5 3.9 5.0 3.6 91.0 75.4 92.1
5/5/2017 7.5 4.6 5.8 26.0 87.4 71.8 98.5
5/4/2017 7.7 3.8 5.6 26.2 61.4 45.8 89.1
5/3/2017 12.5 2.5 7.3 0.0 36.4 19.6 69.3
5/2/2017 9.6 4.4 7.0 9.4 36.4 19.6 88.4
5/1/2017 17.5 4.4 9.8 10.2 34.4 10.2 93.2